Time;durP1;ratioP1;P1;durP2;ratioP2;P2;SDS_P1;SDS_P2;PMS_P1;PMS_P2;Temp;Humidity;BMP_temperature;BMP_pressure;BME280_temperature;BME280_humidity;BME280_pressure;Samples;Min_cycle;Max_cycle;Signal;HPM_P1;HPM_P2
2024/01/14 00:00:07;;;;;;;15.70;9.30;;;;;;;3.56;72.94;100257.11;107370;1284;1003037;-65
2024/01/14 00:02:33;;;;;;;16.80;9.70;;;;;;;3.52;72.64;100256.18;108137;1286;21983;-62
2024/01/14 00:04:59;;;;;;;14.90;8.40;;;;;;;3.48;72.54;100257.35;107346;1278;1002290;-63
2024/01/14 00:07:25;;;;;;;16.60;9.50;;;;;;;3.44;72.41;100265.27;108164;1286;21988;-65
2024/01/14 00:09:51;;;;;;;17.50;9.50;;;;;;;3.40;72.48;100263.66;108218;1282;22370;-63
2024/01/14 00:12:16;;;;;;;16.70;9.30;;;;;;;3.36;72.56;100257.34;108068;1286;21989;-63
2024/01/14 00:14:42;;;;;;;15.60;9.60;;;;;;;3.34;72.50;100254.37;108089;1286;21989;-65
2024/01/14 00:17:08;;;;;;;16.70;10.10;;;;;;;3.34;72.63;100258.87;108162;1284;22034;-62
2024/01/14 00:19:34;;;;;;;15.80;9.40;;;;;;;3.31;72.70;100261.95;108216;1283;21988;-62
2024/01/14 00:21:59;;;;;;;19.20;10.20;;;;;;;3.25;72.54;100266.21;108314;1281;21985;-65
2024/01/14 00:24:25;;;;;;;16.00;8.40;;;;;;;3.23;72.53;100267.55;108112;1277;22034;-63
2024/01/14 00:26:50;;;;;;;16.30;9.80;;;;;;;3.23;72.61;100262.36;107528;1277;1003024;-64
2024/01/14 00:29:16;;;;;;;16.70;8.80;;;;;;;3.23;72.56;100257.67;108289;1277;22026;-63
2024/01/14 00:31:42;;;;;;;15.50;9.30;;;;;;;3.23;72.68;100251.94;108142;1287;21993;-64
2024/01/14 00:34:07;;;;;;;17.50;10.10;;;;;;;3.23;72.75;100254.02;108105;1284;21990;-63
2024/01/14 00:36:39;;;;;;;15.30;8.60;;;;;;;3.21;72.41;100259.05;108160;1280;21995;-64
2024/01/14 00:39:05;;;;;;;15.60;8.70;;;;;;;3.18;72.23;100255.33;108161;1288;22002;-64
2024/01/14 00:41:32;;;;;;;15.50;9.00;;;;;;;3.16;72.17;100247.15;108120;1284;22034;-64
2024/01/14 00:43:58;;;;;;;16.80;9.00;;;;;;;3.17;72.25;100235.02;107400;1281;1002919;-65
2024/01/14 00:46:23;;;;;;;18.90;9.30;;;;;;;3.19;72.48;100231.77;107476;1288;1002564;-63
2024/01/14 00:48:49;;;;;;;16.30;8.40;;;;;;;3.22;72.56;100231.30;108109;1283;23743;-66
2024/01/14 00:51:15;;;;;;;15.70;9.40;;;;;;;3.23;72.59;100230.78;108093;1283;21985;-64
2024/01/14 00:53:41;;;;;;;16.60;9.50;;;;;;;3.22;72.49;100237.35;107381;1289;1002036;-64
2024/01/14 00:56:06;;;;;;;17.50;9.90;;;;;;;3.22;72.49;100233.73;108091;1283;22004;-63
2024/01/14 00:58:35;;;;;;;15.50;9.90;;;;;;;3.23;72.50;100229.77;108124;1285;22001;-63
2024/01/14 01:01:01;;;;;;;16.80;9.50;;;;;;;3.27;72.60;100228.08;106671;1288;2003525;-64
2024/01/14 01:03:26;;;;;;;16.20;9.60;;;;;;;3.30;72.58;100225.87;107369;1283;1003098;-66
2024/01/14 01:05:54;;;;;;;15.80;9.40;;;;;;;3.30;72.53;100222.75;108093;1288;22039;-66
2024/01/14 01:08:19;;;;;;;16.30;9.10;;;;;;;3.32;72.36;100217.55;106620;1288;2002814;-66
2024/01/14 01:10:45;;;;;;;16.40;9.30;;;;;;;3.32;72.35;100215.14;108113;1288;23606;-64
2024/01/14 01:13:11;;;;;;;16.80;10.30;;;;;;;3.33;72.48;100214.45;108094;1288;22005;-65
2024/01/14 01:15:37;;;;;;;18.20;8.70;;;;;;;3.31;72.17;100214.77;108147;1284;21989;-64
2024/01/14 01:18:03;;;;;;;15.90;9.00;;;;;;;3.32;72.22;100214.77;108079;1278;22001;-66
2024/01/14 01:20:29;;;;;;;16.10;9.40;;;;;;;3.34;72.25;100208.04;108107;1288;22031;-66
2024/01/14 01:22:54;;;;;;;16.20;9.80;;;;;;;3.34;72.30;100206.14;108179;1288;22000;-66
2024/01/14 01:25:20;;;;;;;14.80;9.10;;;;;;;3.33;72.34;100206.13;108088;1284;22012;-64
2024/01/14 01:27:46;;;;;;;15.10;8.70;;;;;;;3.27;71.94;100204.83;108095;1288;22003;-67
2024/01/14 01:30:11;;;;;;;16.90;9.80;;;;;;;3.17;71.95;100207.63;107354;1283;1003184;-66
2024/01/14 01:32:38;;;;;;;18.40;10.50;;;;;;;3.11;72.04;100204.42;108097;1289;22002;-66
2024/01/14 01:35:04;;;;;;;17.90;9.30;;;;;;;3.08;71.97;100204.04;108155;1277;21995;-66
2024/01/14 01:37:30;;;;;;;15.00;8.90;;;;;;;3.08;72.03;100207.16;106674;1288;2002539;-63
2024/01/14 01:39:56;;;;;;;16.30;9.90;;;;;;;3.11;72.18;100201.30;106606;1288;2002448;-64
2024/01/14 01:42:22;;;;;;;17.50;10.20;;;;;;;3.13;72.13;100197.16;108084;1277;21986;-66
2024/01/14 01:44:48;;;;;;;16.70;9.40;;;;;;;3.15;71.86;100198.40;108106;1283;22039;-66
2024/01/14 01:47:16;;;;;;;16.40;9.70;;;;;;;3.13;71.61;100196.13;108116;1288;22000;-64
2024/01/14 01:49:42;;;;;;;17.40;10.00;;;;;;;3.15;71.70;100197.19;108042;1289;21992;-64
2024/01/14 01:52:08;;;;;;;19.50;10.10;;;;;;;3.17;71.64;100193.24;106690;1287;2002529;-66
2024/01/14 01:54:34;;;;;;;18.50;9.40;;;;;;;3.17;71.47;100191.66;106607;1288;2002410;-67
2024/01/14 01:56:59;;;;;;;17.80;10.00;;;;;;;3.16;71.38;100191.14;107958;1284;21987;-64
2024/01/14 01:59:25;;;;;;;20.00;11.10;;;;;;;3.15;71.17;100193.70;107979;1289;22125;-63
2024/01/14 02:01:50;;;;;;;19.70;10.40;;;;;;;3.13;71.16;100193.34;108089;1277;21983;-66
2024/01/14 02:04:16;;;;;;;20.10;10.80;;;;;;;3.12;71.07;100194.90;107846;1287;22040;-64
2024/01/14 02:06:42;;;;;;;19.60;10.70;;;;;;;3.14;71.16;100193.89;108170;1284;21987;-66
2024/01/14 02:09:08;;;;;;;18.90;11.10;;;;;;;3.16;70.83;100194.27;108104;1284;21999;-64
2024/01/14 02:11:35;;;;;;;22.20;11.20;;;;;;;3.17;70.82;100192.71;107376;1288;1002377;-64
2024/01/14 02:14:01;;;;;;;21.80;11.70;;;;;;;3.14;70.60;100190.76;108146;1288;21993;-64
2024/01/14 02:16:26;;;;;;;21.50;12.40;;;;;;;3.07;70.62;100196.39;107362;1284;1003136;-66
2024/01/14 02:18:52;;;;;;;23.30;13.00;;;;;;;3.04;70.78;100194.78;108105;1289;21990;-67
2024/01/14 02:21:20;;;;;;;28.50;14.40;;;;;;;2.96;71.03;100190.67;108132;1277;21999;-65
2024/01/14 02:23:48;;;;;;;25.20;13.20;;;;;;;2.89;71.32;100180.15;108093;1288;22001;-62
2024/01/14 02:26:14;;;;;;;20.60;12.00;;;;;;;2.92;71.16;100176.05;107441;1277;1002890;-63
2024/01/14 02:28:39;;;;;;;26.30;13.30;;;;;;;2.97;70.99;100169.54;108116;1277;21992;-63
2024/01/14 02:31:05;;;;;;;24.30;13.70;;;;;;;2.99;70.98;100164.89;108045;1280;22000;-66
2024/01/14 02:33:30;;;;;;;21.10;12.20;;;;;;;3.03;70.83;100160.96;107948;1287;21985;-63
2024/01/14 02:35:56;;;;;;;22.90;12.20;;;;;;;3.07;70.95;100154.09;108101;1287;22026;-64
2024/01/14 02:38:21;;;;;;;21.90;12.30;;;;;;;3.11;70.84;100145.64;108214;1287;22033;-64
2024/01/14 02:40:47;;;;;;;24.70;12.50;;;;;;;3.16;70.66;100135.83;107384;1283;1003088;-63
2024/01/14 02:43:13;;;;;;;22.50;11.50;;;;;;;3.20;70.65;100130.34;107376;1287;1002497;-65
2024/01/14 02:45:38;;;;;;;25.80;13.90;;;;;;;3.21;70.45;100127.23;107400;1287;1003046;-64
2024/01/14 02:48:04;;;;;;;23.00;13.10;;;;;;;3.12;70.00;100133.86;108124;1287;22769;-63
2024/01/14 02:50:33;;;;;;;22.80;12.10;;;;;;;3.13;69.86;100127.64;108132;1276;22054;-63
2024/01/14 02:52:59;;;;;;;21.70;11.60;;;;;;;3.15;69.75;100124.02;108261;1281;21991;-64
2024/01/14 02:55:24;;;;;;;23.70;12.70;;;;;;;3.16;69.68;100117.98;108181;1280;21994;-65
2024/01/14 02:57:50;;;;;;;19.90;12.00;;;;;;;3.19;69.61;100117.13;108101;1287;22461;-63
2024/01/14 03:00:16;;;;;;;25.70;12.80;;;;;;;3.20;69.39;100116.81;108167;1280;21988;-66
2024/01/14 03:02:41;;;;;;;25.40;13.40;;;;;;;3.21;69.36;100117.52;108162;1287;21997;-63
2024/01/14 03:05:07;;;;;;;25.10;13.60;;;;;;;3.17;69.44;100118.52;108144;1287;22006;-63
2024/01/14 03:07:33;;;;;;;23.90;13.20;;;;;;;3.20;69.64;100115.43;108138;1287;22051;-65
2024/01/14 03:09:59;;;;;;;21.90;12.60;;;;;;;3.17;69.59;100107.75;107373;1287;1002280;-63
2024/01/14 03:12:24;;;;;;;21.80;11.80;;;;;;;3.15;69.65;100109.11;107377;1287;1002676;-63
2024/01/14 03:14:50;;;;;;;23.80;11.50;;;;;;;3.14;69.86;100101.13;108175;1287;22001;-65
2024/01/14 03:17:15;;;;;;;22.00;12.10;;;;;;;3.14;69.83;100097.31;108142;1284;21989;-66
2024/01/14 03:19:41;;;;;;;21.80;12.00;;;;;;;3.16;69.72;100097.33;108125;1287;21996;-65
2024/01/14 03:22:07;;;;;;;24.90;12.20;;;;;;;3.22;69.38;100094.83;108143;1287;22089;-66
2024/01/14 03:24:33;;;;;;;22.70;11.90;;;;;;;3.26;69.06;100090.38;108115;1287;21989;-64
2024/01/14 03:26:58;;;;;;;20.90;11.70;;;;;;;3.29;68.76;100087.80;108160;1287;22030;-63
2024/01/14 03:29:24;;;;;;;24.50;12.30;;;;;;;3.30;68.73;100088.52;107364;1287;1003216;-65
2024/01/14 03:31:51;;;;;;;24.40;13.20;;;;;;;3.29;68.49;100088.84;107321;1283;1002426;-62
2024/01/14 03:34:17;;;;;;;23.70;12.90;;;;;;;3.29;68.49;100088.33;107336;1284;1002580;-63
2024/01/14 03:36:42;;;;;;;21.40;12.30;;;;;;;3.27;68.19;100088.82;108116;1288;21998;-63
2024/01/14 03:39:08;;;;;;;22.30;12.60;;;;;;;3.23;67.77;100088.60;108081;1277;22455;-65
2024/01/14 03:41:34;;;;;;;24.20;12.00;;;;;;;3.19;67.76;100088.89;108058;1288;21992;-65
2024/01/14 03:43:59;;;;;;;23.90;12.10;;;;;;;3.18;67.83;100090.60;108007;1286;21993;-64
2024/01/14 03:46:25;;;;;;;44.00;20.10;;;;;;;3.17;67.95;100088.34;108122;1289;22003;-65
2024/01/14 03:48:50;;;;;;;31.10;16.00;;;;;;;3.16;68.04;100084.51;108135;1288;21989;-63
2024/01/14 03:51:19;;;;;;;28.00;13.60;;;;;;;3.15;67.97;100083.09;108101;1284;24329;-66
2024/01/14 03:53:44;;;;;;;23.20;13.20;;;;;;;3.10;67.91;100081.31;107379;1288;1003599;-65
2024/01/14 03:56:10;;;;;;;27.20;13.90;;;;;;;3.05;68.06;100071.02;107371;1288;1002958;-65
2024/01/14 03:58:37;;;;;;;23.30;12.20;;;;;;;3.03;68.08;100067.02;108114;1284;21982;-63
2024/01/14 04:01:03;;;;;;;25.20;13.50;;;;;;;3.01;68.08;100067.68;108111;1288;22006;-65
2024/01/14 04:03:28;;;;;;;25.80;13.60;;;;;;;3.00;68.22;100068.86;108121;1288;22009;-63
2024/01/14 04:05:54;;;;;;;28.80;16.00;;;;;;;3.00;68.44;100067.65;108136;1288;22042;-65
2024/01/14 04:08:19;;;;;;;44.90;24.40;;;;;;;2.98;68.20;100068.84;107357;1282;1004150;-66
2024/01/14 04:10:45;;;;;;;33.50;18.00;;;;;;;2.96;67.98;100067.26;107370;1285;1002613;-65
2024/01/14 04:13:12;;;;;;;26.20;13.40;;;;;;;2.95;67.68;100064.12;108125;1288;21983;-63
2024/01/14 04:15:38;;;;;;;25.80;13.00;;;;;;;2.93;67.60;100063.56;108176;1284;22026;-63
2024/01/14 04:18:04;;;;;;;24.30;13.50;;;;;;;2.89;67.22;100064.02;108076;1284;22008;-66
2024/01/14 04:20:32;;;;;;;26.20;13.20;;;;;;;2.82;66.77;100062.73;108134;1288;21992;-63
2024/01/14 04:22:58;;;;;;;24.30;13.20;;;;;;;2.74;66.50;100060.53;108118;1288;21995;-63
2024/01/14 04:25:24;;;;;;;29.40;14.30;;;;;;;2.66;66.35;100061.10;108110;1287;22000;-65
2024/01/14 04:27:50;;;;;;;25.00;14.20;;;;;;;2.59;66.41;100061.17;108134;1284;21990;-66
2024/01/14 04:30:15;;;;;;;25.10;14.30;;;;;;;2.52;66.27;100057.95;107419;1288;1002288;-66
2024/01/14 04:32:41;;;;;;;23.90;14.00;;;;;;;2.43;65.90;100055.40;108131;1282;21995;-65
2024/01/14 04:35:07;;;;;;;26.30;15.20;;;;;;;2.30;65.38;100059.86;107359;1287;1002588;-62
2024/01/14 04:37:32;;;;;;;23.60;13.00;;;;;;;2.21;65.45;100059.72;107332;1277;1004118;-63
2024/01/14 04:39:58;;;;;;;25.00;14.50;;;;;;;2.12;65.51;100053.69;107357;1288;1006730;-63
2024/01/14 04:42:23;;;;;;;29.50;14.60;;;;;;;2.01;65.33;100047.27;108117;1288;22006;-65
2024/01/14 04:44:49;;;;;;;29.90;15.00;;;;;;;1.93;65.18;100044.54;108102;1285;22030;-62
2024/01/14 04:47:14;;;;;;;29.40;14.70;;;;;;;1.87;65.41;100044.09;108083;1284;22046;-62
2024/01/14 04:49:40;;;;;;;27.80;14.70;;;;;;;1.81;65.31;100048.48;107949;1288;21993;-65
2024/01/14 04:52:06;;;;;;;25.50;13.70;;;;;;;1.74;65.47;100050.77;108086;1284;21987;-63
2024/01/14 04:54:31;;;;;;;25.20;13.60;;;;;;;1.68;65.66;100046.85;108077;1288;21992;-65
2024/01/14 04:56:57;;;;;;;25.70;13.20;;;;;;;1.60;65.68;100043.42;107348;1287;1002201;-66
2024/01/14 04:59:23;;;;;;;27.80;14.60;;;;;;;1.52;65.36;100033.41;108105;1277;22021;-62
2024/01/14 05:01:49;;;;;;;26.30;13.30;;;;;;;1.41;65.53;100028.02;107353;1288;1002570;-62
2024/01/14 05:04:15;;;;;;;30.00;14.60;;;;;;;1.28;65.87;100027.77;108079;1288;22710;-65
2024/01/14 05:06:40;;;;;;;29.70;15.30;;;;;;;1.15;66.51;100023.88;108049;1288;22227;-65
2024/01/14 05:09:06;;;;;;;32.60;15.40;;;;;;;1.11;66.86;100027.09;108096;1288;21989;-65
2024/01/14 05:11:32;;;;;;;26.70;15.00;;;;;;;1.08;67.01;100029.61;107324;1288;1002898;-65
2024/01/14 05:13:57;;;;;;;28.00;14.60;;;;;;;1.04;67.21;100026.08;107370;1288;1002587;-62
2024/01/14 05:16:23;;;;;;;29.40;16.00;;;;;;;0.99;66.99;100025.80;108115;1288;21990;-63
2024/01/14 05:18:49;;;;;;;32.10;16.50;;;;;;;0.92;66.88;100026.01;108121;1288;22000;-64
2024/01/14 05:21:16;;;;;;;28.20;15.30;;;;;;;0.91;66.61;100023.89;108118;1288;22001;-62
2024/01/14 05:23:42;;;;;;;28.10;14.90;;;;;;;0.91;66.51;100019.75;107416;1288;1002011;-62
2024/01/14 05:26:08;;;;;;;31.20;15.10;;;;;;;0.88;66.04;100016.96;108088;1288;21989;-61
2024/01/14 05:28:36;;;;;;;31.10;15.10;;;;;;;0.83;65.33;100014.75;108168;1288;21991;-65
2024/01/14 05:31:01;;;;;;;29.40;14.20;;;;;;;0.75;65.47;100015.95;107486;1286;1003096;-61
2024/01/14 05:33:27;;;;;;;27.30;15.20;;;;;;;0.65;65.12;100013.52;107309;1286;1002596;-61
2024/01/14 05:35:53;;;;;;;27.30;15.70;;;;;;;0.56;64.92;100011.23;108306;1286;22027;-62
2024/01/14 05:38:18;;;;;;;25.80;14.30;;;;;;;0.46;64.58;100007.90;107528;1286;1002958;-61
2024/01/14 05:40:44;;;;;;;30.60;14.90;;;;;;;0.37;64.70;100010.98;108283;1286;21985;-62
2024/01/14 05:43:10;;;;;;;31.70;16.10;;;;;;;0.33;64.75;100006.05;108062;1284;21990;-62
2024/01/14 05:45:35;;;;;;;33.50;16.50;;;;;;;0.31;65.13;100007.56;108149;1286;21991;-63
2024/01/14 05:48:01;;;;;;;31.20;15.30;;;;;;;0.34;65.65;100003.13;108271;1281;22048;-63
2024/01/14 05:50:26;;;;;;;30.20;15.40;;;;;;;0.36;65.68;100005.27;108093;1286;22457;-62
2024/01/14 05:52:52;;;;;;;30.60;15.80;;;;;;;0.37;65.72;100007.88;108079;1283;21990;-62
2024/01/14 05:55:17;;;;;;;29.20;15.10;;;;;;;0.39;65.78;100010.86;107339;1277;1002437;-62
2024/01/14 05:57:43;;;;;;;34.10;17.20;;;;;;;0.39;65.53;100016.38;107314;1285;1002213;-61
2024/01/14 06:00:09;;;;;;;36.40;15.50;;;;;;;0.37;65.52;100014.26;107467;1286;1002745;-62
2024/01/14 06:02:35;;;;;;;32.60;16.10;;;;;;;0.36;65.70;100010.80;108289;1286;21995;-62
2024/01/14 06:05:01;;;;;;;36.00;17.60;;;;;;;0.40;66.25;100006.23;108200;1277;23056;-62
2024/01/14 06:07:26;;;;;;;33.80;16.10;;;;;;;0.44;66.33;100004.59;108296;1286;22026;-62
2024/01/14 06:09:52;;;;;;;32.30;15.30;;;;;;;0.45;66.20;100001.84;107500;1277;1002546;-61
2024/01/14 06:12:17;;;;;;;28.40;14.70;;;;;;;0.48;66.27;99995.33;107523;1286;1002867;-64
2024/01/14 06:14:43;;;;;;;34.50;18.10;;;;;;;0.50;66.84;99993.67;107394;1286;1002680;-63
2024/01/14 06:17:09;;;;;;;37.10;17.70;;;;;;;0.55;67.07;99991.89;108174;1277;22103;-61
2024/01/14 06:19:34;;;;;;;35.20;19.10;;;;;;;0.59;67.34;99992.15;108040;1286;22026;-63
2024/01/14 06:22:00;;;;;;;37.80;19.80;;;;;;;0.56;67.93;99990.52;108206;1286;23143;-63
2024/01/14 06:24:26;;;;;;;41.80;25.40;;;;;;;0.59;68.19;99988.01;107468;1286;1002448;-64
2024/01/14 06:26:52;;;;;;;37.60;19.90;;;;;;;0.65;68.49;99983.63;107326;1286;1002737;-64
2024/01/14 06:29:18;;;;;;;36.40;18.00;;;;;;;0.69;68.71;99984.59;108059;1281;22080;-65
2024/01/14 06:31:45;;;;;;;32.90;16.80;;;;;;;0.70;69.05;99983.55;108022;1286;21993;-62
2024/01/14 06:34:11;;;;;;;34.40;18.10;;;;;;;0.67;69.39;99979.35;108132;1288;22003;-65
2024/01/14 06:36:37;;;;;;;31.70;17.60;;;;;;;0.71;69.61;99976.85;108049;1288;21981;-63
2024/01/14 06:39:05;;;;;;;33.40;16.30;;;;;;;0.80;68.83;99974.44;108085;1278;23522;-64
2024/01/14 06:41:31;;;;;;;34.90;18.00;;;;;;;0.89;68.33;99974.27;108098;1288;23695;-63
2024/01/14 06:43:56;;;;;;;39.40;17.40;;;;;;;0.92;67.93;99978.30;108068;1288;21995;-64
2024/01/14 06:46:22;;;;;;;35.00;19.00;;;;;;;0.81;67.96;99988.80;108045;1288;23732;-64
2024/01/14 06:48:48;;;;;;;39.70;18.40;;;;;;;0.83;67.47;99987.29;108101;1288;22050;-62
2024/01/14 06:51:14;;;;;;;33.60;18.30;;;;;;;0.79;66.84;99986.85;107383;1288;1003015;-62
2024/01/14 06:53:40;;;;;;;33.30;16.10;;;;;;;0.71;66.86;99988.92;108113;1277;21996;-65
2024/01/14 06:56:06;;;;;;;30.80;16.30;;;;;;;0.69;66.77;99990.63;108125;1286;21987;-63
2024/01/14 06:58:33;;;;;;;32.20;17.40;;;;;;;0.72;66.55;99985.00;108112;1286;21995;-64
2024/01/14 07:00:58;;;;;;;34.60;17.70;;;;;;;0.66;66.74;99977.77;108102;1288;23749;-63
2024/01/14 07:03:24;;;;;;;33.30;17.50;;;;;;;0.61;66.88;99975.43;108089;1288;21997;-65
2024/01/14 07:05:50;;;;;;;33.40;17.20;;;;;;;0.56;67.05;99979.13;107913;1288;22457;-63
2024/01/14 07:08:15;;;;;;;34.50;17.00;;;;;;;0.62;66.72;99979.95;107324;1284;1002254;-64
2024/01/14 07:10:41;;;;;;;86.60;19.70;;;;;;;0.63;67.55;99975.98;108098;1288;21978;-63
2024/01/14 07:13:07;;;;;;;34.30;17.80;;;;;;;0.59;68.18;99973.33;108102;1286;21992;-64
2024/01/14 07:15:32;;;;;;;33.80;16.50;;;;;;;0.67;68.14;99966.91;108080;1283;22000;-65
2024/01/14 07:17:58;;;;;;;32.90;18.00;;;;;;;0.74;68.15;99959.30;108078;1286;21998;-63
2024/01/14 07:20:23;;;;;;;34.80;16.80;;;;;;;0.83;68.20;99949.98;108074;1284;21990;-65
2024/01/14 07:22:49;;;;;;;34.20;16.60;;;;;;;0.94;68.31;99941.90;107341;1286;1002877;-63
2024/01/14 07:25:14;;;;;;;35.90;17.80;;;;;;;1.06;68.41;99941.27;108027;1288;21992;-66
2024/01/14 07:27:40;;;;;;;37.10;18.40;;;;;;;1.12;68.29;99939.48;108127;1288;21996;-66
2024/01/14 07:30:06;;;;;;;27.40;15.20;;;;;;;1.27;68.23;99942.19;108239;1279;21977;-66
2024/01/14 07:32:32;;;;;;;32.70;16.70;;;;;;;1.36;68.11;99938.02;108222;1283;22675;-64
2024/01/14 07:34:58;;;;;;;31.00;15.70;;;;;;;1.39;67.88;99935.82;108142;1286;23659;-65
2024/01/14 07:37:24;;;;;;;33.90;16.80;;;;;;;1.47;67.52;99936.14;108151;1281;21998;-65
2024/01/14 07:39:50;;;;;;;34.00;17.30;;;;;;;1.53;67.14;99937.28;108098;1286;22158;-65
2024/01/14 07:42:16;;;;;;;33.80;17.40;;;;;;;1.55;66.72;99936.64;108134;1286;22118;-66
2024/01/14 07:44:42;;;;;;;31.70;17.30;;;;;;;1.63;66.83;99935.56;108073;1286;121177;-64
2024/01/14 07:47:07;;;;;;;30.80;16.50;;;;;;;1.66;66.60;99935.42;108163;1286;22170;-65
2024/01/14 07:49:33;;;;;;;32.90;16.70;;;;;;;1.73;66.58;99929.66;108098;1286;21999;-65
2024/01/14 07:51:59;;;;;;;29.40;15.80;;;;;;;1.84;66.66;99930.19;108162;1283;21986;-66
2024/01/14 07:54:25;;;;;;;30.50;15.30;;;;;;;1.89;66.15;99929.05;108206;1286;22029;-66
2024/01/14 07:56:51;;;;;;;34.70;17.70;;;;;;;1.95;65.97;99927.77;108237;1286;22028;-63
2024/01/14 07:59:20;;;;;;;29.30;15.20;;;;;;;2.03;65.98;99927.36;108130;1277;22002;-65
2024/01/14 08:01:46;;;;;;;26.90;14.90;;;;;;;2.07;65.51;99928.63;108121;1276;21990;-67
2024/01/14 08:04:11;;;;;;;33.80;16.30;;;;;;;2.09;64.95;99929.02;108206;1283;21988;-67
2024/01/14 08:06:37;;;;;;;29.00;14.80;;;;;;;2.25;65.42;99930.96;108242;1284;21993;-65
2024/01/14 08:09:03;;;;;;;34.30;17.10;;;;;;;2.35;65.13;99935.09;108116;1281;22028;-68
2024/01/14 08:11:29;;;;;;;32.10;16.30;;;;;;;2.41;64.97;99933.97;108132;1286;22002;-69
2024/01/14 08:13:54;;;;;;;31.00;16.20;;;;;;;2.50;64.86;99932.54;108159;1283;22012;-66
2024/01/14 08:16:20;;;;;;;32.60;16.50;;;;;;;2.58;64.73;99930.21;108067;1276;21997;-65
2024/01/14 08:18:45;;;;;;;27.30;14.70;;;;;;;2.65;64.87;99924.23;108095;1286;21995;-65
2024/01/14 08:21:11;;;;;;;28.60;14.10;;;;;;;2.73;64.86;99920.52;108185;1286;22012;-69
2024/01/14 08:23:37;;;;;;;31.70;16.10;;;;;;;2.88;65.27;99919.49;108141;1286;21989;-65
2024/01/14 08:26:02;;;;;;;30.60;15.90;;;;;;;3.01;65.20;99915.98;108141;1286;22056;-69
2024/01/14 08:28:32;;;;;;;29.10;16.30;;;;;;;3.13;65.33;99911.09;107445;1286;1002591;-69
2024/01/14 08:31:00;;;;;;;29.20;15.70;;;;;;;3.23;65.07;99904.79;108225;1286;21989;-66
2024/01/14 08:33:27;;;;;;;31.60;17.40;;;;;;;3.27;64.15;99897.03;107125;1286;1002340;-65
2024/01/14 08:35:54;;;;;;;32.80;17.10;;;;;;;3.33;64.06;99897.76;107396;1283;1002645;-64
2024/01/14 08:38:20;;;;;;;29.80;16.20;;;;;;;3.41;64.18;99892.11;108109;1286;21990;-64
2024/01/14 08:40:46;;;;;;;31.20;16.10;;;;;;;3.51;64.43;99891.85;107363;1286;1002614;-64
2024/01/14 08:43:12;;;;;;;27.80;15.70;;;;;;;3.62;64.46;99885.70;108100;1281;23520;-64
2024/01/14 08:45:38;;;;;;;30.60;15.90;;;;;;;3.70;64.08;99880.58;108088;1284;21998;-64
2024/01/14 08:48:06;;;;;;;28.00;15.30;;;;;;;3.77;63.57;99876.98;107323;1286;1002163;-65
2024/01/14 08:50:34;;;;;;;32.90;16.90;;;;;;;3.80;62.94;99879.25;108137;1277;22006;-68
2024/01/14 08:53:00;;;;;;;32.50;17.90;;;;;;;3.86;63.20;99870.61;108089;1286;22019;-68
2024/01/14 08:55:26;;;;;;;31.00;16.60;;;;;;;3.94;63.62;99860.77;108090;1286;22038;-68
2024/01/14 08:57:52;;;;;;;33.40;16.70;;;;;;;4.04;64.07;99847.98;108111;1286;22938;-68
2024/01/14 09:00:18;;;;;;;30.10;15.70;;;;;;;4.16;64.32;99845.44;108156;1286;22142;-65
2024/01/14 09:02:44;;;;;;;32.50;17.00;;;;;;;4.23;64.08;99842.52;108321;1286;22031;-65
2024/01/14 09:05:10;;;;;;;39.80;23.00;;;;;;;4.32;64.45;99834.58;108252;1276;21985;-65
2024/01/14 09:07:36;;;;;;;38.90;19.80;;;;;;;4.39;63.64;99833.05;108121;1286;22445;-69
2024/01/14 09:10:02;;;;;;;36.40;18.10;;;;;;;4.50;63.99;99827.88;108313;1286;22158;-69
2024/01/14 09:12:29;;;;;;;32.50;17.80;;;;;;;4.58;64.32;99824.60;108305;1286;22000;-66
2024/01/14 09:14:54;;;;;;;29.60;17.70;;;;;;;4.65;64.29;99822.02;108323;1281;22038;-69
2024/01/14 09:17:20;;;;;;;31.00;17.50;;;;;;;4.72;63.89;99820.65;108317;1283;22034;-66
2024/01/14 09:19:46;;;;;;;35.10;18.30;;;;;;;4.76;63.60;99817.88;108307;1284;21987;-66
2024/01/14 09:22:11;;;;;;;35.20;18.10;;;;;;;4.81;63.51;99814.06;108310;1286;22042;-69
2024/01/14 09:24:42;;;;;;;31.70;18.40;;;;;;;4.84;63.36;99808.52;108163;1286;21992;-66
2024/01/14 09:27:08;;;;;;;31.70;17.20;;;;;;;4.83;63.42;99804.17;108183;1286;21996;-70
2024/01/14 09:29:33;;;;;;;33.50;17.40;;;;;;;4.84;64.03;99794.27;108099;1286;21999;-65
2024/01/14 09:31:59;;;;;;;31.50;18.10;;;;;;;4.88;63.52;99792.52;108089;1286;22056;-66
2024/01/14 09:34:27;;;;;;;33.40;17.50;;;;;;;4.80;62.00;99802.41;108202;1286;22024;-65
2024/01/14 09:36:53;;;;;;;38.80;19.80;;;;;;;4.66;60.66;99794.39;108107;1286;21992;-71
2024/01/14 09:39:18;;;;;;;51.30;21.20;;;;;;;4.51;60.19;99790.70;108130;1286;21996;-65
2024/01/14 09:41:44;;;;;;;33.70;18.40;;;;;;;4.52;60.87;99790.01;107352;1286;1002481;-71
2024/01/14 09:44:14;;;;;;;34.50;18.60;;;;;;;4.49;61.24;99782.35;108139;1280;21997;-72
2024/01/14 09:46:39;;;;;;;34.30;19.30;;;;;;;4.47;61.30;99775.73;108072;1286;22006;-66
2024/01/14 09:49:05;;;;;;;38.60;20.10;;;;;;;4.50;61.58;99772.10;108130;1277;21957;-65
2024/01/14 09:51:30;;;;;;;32.10;18.80;;;;;;;4.49;61.42;99768.98;108105;1286;22001;-70
2024/01/14 09:53:58;;;;;;;29.80;17.50;;;;;;;4.32;61.05;99763.52;107908;1286;24206;-71
2024/01/14 09:56:23;;;;;;;33.20;18.80;;;;;;;4.11;61.03;99760.67;107445;1286;1002573;-70
2024/01/14 09:58:49;;;;;;;30.90;17.90;;;;;;;4.20;61.57;99757.41;108149;1286;22453;-63
2024/01/14 10:01:18;;;;;;;35.50;19.70;;;;;;;4.25;61.90;99749.27;107939;1286;21983;-65
2024/01/14 10:03:43;;;;;;;35.90;19.70;;;;;;;4.26;62.15;99747.02;108148;1286;22006;-64
2024/01/14 10:06:09;;;;;;;32.00;16.90;;;;;;;4.35;62.35;99741.14;108137;1278;21981;-65
2024/01/14 10:08:34;;;;;;;33.90;19.00;;;;;;;4.38;62.41;99734.89;108116;1286;23057;-64
2024/01/14 10:11:03;;;;;;;34.60;20.00;;;;;;;4.45;62.48;99723.09;108124;1277;21985;-65
2024/01/14 10:13:31;;;;;;;35.60;19.60;;;;;;;4.50;62.60;99719.63;107445;1286;1002235;-71
2024/01/14 10:15:58;;;;;;;36.60;19.50;;;;;;;4.58;62.68;99717.91;108202;1286;21991;-64
2024/01/14 10:18:24;;;;;;;33.70;19.20;;;;;;;4.63;62.65;99707.33;108196;1275;21998;-72
2024/01/14 10:20:50;;;;;;;34.00;19.40;;;;;;;4.62;62.32;99708.36;107398;1286;1002988;-64
2024/01/14 10:23:16;;;;;;;35.50;19.20;;;;;;;4.55;61.69;99713.56;108138;1286;22088;-65
2024/01/14 10:25:41;;;;;;;36.10;18.40;;;;;;;4.51;61.55;99703.66;108139;1286;21994;-65
2024/01/14 10:28:07;;;;;;;35.20;19.60;;;;;;;4.54;61.85;99696.17;107406;1286;1002226;-70
2024/01/14 10:30:34;;;;;;;47.60;24.30;;;;;;;4.55;61.89;99692.36;107430;1286;1003043;-70
2024/01/14 10:33:02;;;;;;;42.90;24.00;;;;;;;4.55;61.81;99690.27;108145;1286;21996;-64
2024/01/14 10:35:28;;;;;;;89.20;35.30;;;;;;;4.53;62.00;99688.02;107380;1286;1002817;-70
2024/01/14 10:37:53;;;;;;;97.60;38.20;;;;;;;4.47;62.18;99681.92;108110;1286;25219;-69
2024/01/14 10:40:19;;;;;;;94.60;39.70;;;;;;;4.44;62.18;99675.48;108118;1286;22001;-65
2024/01/14 10:42:45;;;;;;;51.70;27.50;;;;;;;4.42;62.24;99668.37;108130;1286;21990;-65
2024/01/14 10:45:11;;;;;;;94.00;38.60;;;;;;;4.37;62.04;99664.72;108175;1286;21985;-65
2024/01/14 10:47:36;;;;;;;46.10;24.40;;;;;;;4.35;62.28;99664.20;108104;1286;21998;-69
2024/01/14 10:50:02;;;;;;;65.00;33.40;;;;;;;4.32;62.25;99656.71;108121;1286;21983;-65
2024/01/14 10:52:31;;;;;;;49.30;26.20;;;;;;;4.28;62.39;99649.77;108199;1286;22004;-65
2024/01/14 10:54:58;;;;;;;48.80;24.80;;;;;;;4.16;62.15;99650.09;108192;1286;21986;-68
2024/01/14 10:57:36;;;;;;;38.20;22.00;;;;;;;3.97;62.39;99652.30;107959;1286;22011;-68
2024/01/14 11:00:08;;;;;;;54.50;28.20;;;;;;;3.97;62.76;99658.54;107396;1286;1002944;-68
2024/01/14 11:02:38;;;;;;;45.10;25.10;;;;;;;4.02;62.98;99653.52;107492;1286;1003518;-65